sensor_id;sensor_type;location;lat;lon;timestamp;temperature;humidity
15040;DHT22;7617;47.366;8.558;2024-02-26T00:00:24;10.50;92.40
15040;DHT22;7617;47.366;8.558;2024-02-26T00:02:53;10.50;92.30
15040;DHT22;7617;47.366;8.558;2024-02-26T00:05:23;10.40;92.20
15040;DHT22;7617;47.366;8.558;2024-02-26T00:07:51;10.30;92.10
15040;DHT22;7617;47.366;8.558;2024-02-26T00:10:20;10.20;92.10
15040;DHT22;7617;47.366;8.558;2024-02-26T00:12:48;10.30;92.10
15040;DHT22;7617;47.366;8.558;2024-02-26T00:15:16;10.10;92.10
15040;DHT22;7617;47.366;8.558;2024-02-26T00:17:44;10.30;92.20
15040;DHT22;7617;47.366;8.558;2024-02-26T00:20:13;9.80;91.80
15040;DHT22;7617;47.366;8.558;2024-02-26T00:22:42;10.10;91.90
15040;DHT22;7617;47.366;8.558;2024-02-26T00:25:12;10.00;91.80
15040;DHT22;7617;47.366;8.558;2024-02-26T00:27:40;10.10;92.00
15040;DHT22;7617;47.366;8.558;2024-02-26T00:30:09;10.10;91.70
15040;DHT22;7617;47.366;8.558;2024-02-26T00:32:39;10.20;91.80
15040;DHT22;7617;47.366;8.558;2024-02-26T00:35:08;10.30;91.60
15040;DHT22;7617;47.366;8.558;2024-02-26T00:37:38;10.40;92.20
15040;DHT22;7617;47.366;8.558;2024-02-26T00:40:08;10.50;91.40
15040;DHT22;7617;47.366;8.558;2024-02-26T00:42:37;10.30;91.50
15040;DHT22;7617;47.366;8.558;2024-02-26T00:45:06;10.20;91.40
15040;DHT22;7617;47.366;8.558;2024-02-26T00:50:03;10.10;91.30
15040;DHT22;7617;47.366;8.558;2024-02-26T00:52:32;10.30;91.30
15040;DHT22;7617;47.366;8.558;2024-02-26T00:55:01;10.10;91.20
15040;DHT22;7617;47.366;8.558;2024-02-26T00:57:31;9.80;91.10
15040;DHT22;7617;47.366;8.558;2024-02-26T00:59:59;9.90;91.30
15040;DHT22;7617;47.366;8.558;2024-02-26T01:02:28;9.90;91.40
15040;DHT22;7617;47.366;8.558;2024-02-26T01:04:56;9.80;93.50
15040;DHT22;7617;47.366;8.558;2024-02-26T01:07:24;10.10;91.60
15040;DHT22;7617;47.366;8.558;2024-02-26T01:09:56;10.10;91.70
15040;DHT22;7617;47.366;8.558;2024-02-26T01:12:24;10.00;91.80
15040;DHT22;7617;47.366;8.558;2024-02-26T01:14:54;10.00;91.70
15040;DHT22;7617;47.366;8.558;2024-02-26T01:27:20;10.10;93.20
15040;DHT22;7617;47.366;8.558;2024-02-26T01:29:55;9.90;92.30
15040;DHT22;7617;47.366;8.558;2024-02-26T01:34:54;9.90;92.60
15040;DHT22;7617;47.366;8.558;2024-02-26T01:39:50;10.00;92.90
15040;DHT22;7617;47.366;8.558;2024-02-26T01:42:18;10.00;93.10
15040;DHT22;7617;47.366;8.558;2024-02-26T01:44:47;10.00;94.30
15040;DHT22;7617;47.366;8.558;2024-02-26T01:47:17;9.90;96.30
15040;DHT22;7617;47.366;8.558;2024-02-26T01:49:45;9.90;93.40
15040;DHT22;7617;47.366;8.558;2024-02-26T01:52:14;9.80;93.80
15040;DHT22;7617;47.366;8.558;2024-02-26T01:54:43;10.00;94.10
15040;DHT22;7617;47.366;8.558;2024-02-26T01:57:14;9.90;93.00
15040;DHT22;7617;47.366;8.558;2024-02-26T01:59:42;9.90;94.30
15040;DHT22;7617;47.366;8.558;2024-02-26T02:02:11;9.70;93.50
15040;DHT22;7617;47.366;8.558;2024-02-26T02:04:41;9.80;92.80
15040;DHT22;7617;47.366;8.558;2024-02-26T02:09:38;9.90;94.30
15040;DHT22;7617;47.366;8.558;2024-02-26T02:12:06;9.80;94.10
15040;DHT22;7617;47.366;8.558;2024-02-26T02:14:34;10.00;94.20
15040;DHT22;7617;47.366;8.558;2024-02-26T02:19:31;9.60;93.70
15040;DHT22;7617;47.366;8.558;2024-02-26T02:22:01;9.90;93.50
15040;DHT22;7617;47.366;8.558;2024-02-26T02:29:26;9.70;93.40
15040;DHT22;7617;47.366;8.558;2024-02-26T02:31:56;9.80;94.90
15040;DHT22;7617;47.366;8.558;2024-02-26T02:36:54;9.80;95.60
15040;DHT22;7617;47.366;8.558;2024-02-26T02:39:24;9.90;95.10
15040;DHT22;7617;47.366;8.558;2024-02-26T02:44:21;9.40;93.80
15040;DHT22;7617;47.366;8.558;2024-02-26T02:46:48;9.60;95.80
15040;DHT22;7617;47.366;8.558;2024-02-26T02:49:19;9.40;96.20
15040;DHT22;7617;47.366;8.558;2024-02-26T02:51:47;9.90;97.80
15040;DHT22;7617;47.366;8.558;2024-02-26T02:54:16;9.60;97.60
15040;DHT22;7617;47.366;8.558;2024-02-26T02:56:45;9.70;94.00
15040;DHT22;7617;47.366;8.558;2024-02-26T02:59:14;9.60;97.80
15040;DHT22;7617;47.366;8.558;2024-02-26T03:04:11;9.90;95.30
15040;DHT22;7617;47.366;8.558;2024-02-26T03:06:39;9.70;98.50
15040;DHT22;7617;47.366;8.558;2024-02-26T03:09:07;9.80;96.30
15040;DHT22;7617;47.366;8.558;2024-02-26T03:11:35;9.40;98.50
15040;DHT22;7617;47.366;8.558;2024-02-26T03:14:05;9.30;99.00
15040;DHT22;7617;47.366;8.558;2024-02-26T03:19:02;9.40;99.90
15040;DHT22;7617;47.366;8.558;2024-02-26T03:24:01;9.80;94.60
15040;DHT22;7617;47.366;8.558;2024-02-26T03:26:29;9.60;94.50
15040;DHT22;7617;47.366;8.558;2024-02-26T03:28:58;9.60;94.50
15040;DHT22;7617;47.366;8.558;2024-02-26T03:31:29;9.60;94.80
15040;DHT22;7617;47.366;8.558;2024-02-26T03:33:58;9.60;94.60
15040;DHT22;7617;47.366;8.558;2024-02-26T03:36:27;9.60;94.60
15040;DHT22;7617;47.366;8.558;2024-02-26T03:38:55;9.60;94.60
15040;DHT22;7617;47.366;8.558;2024-02-26T03:41:23;9.60;94.90
15040;DHT22;7617;47.366;8.558;2024-02-26T03:43:51;9.60;94.80
15040;DHT22;7617;47.366;8.558;2024-02-26T03:46:19;9.70;94.70
15040;DHT22;7617;47.366;8.558;2024-02-26T03:48:48;9.60;94.90
15040;DHT22;7617;47.366;8.558;2024-02-26T03:51:17;9.40;94.50
15040;DHT22;7617;47.366;8.558;2024-02-26T03:53:45;9.50;94.80
15040;DHT22;7617;47.366;8.558;2024-02-26T03:56:14;9.60;94.90
15040;DHT22;7617;47.366;8.558;2024-02-26T03:58:42;9.60;94.80
15040;DHT22;7617;47.366;8.558;2024-02-26T04:01:10;9.60;94.70
15040;DHT22;7617;47.366;8.558;2024-02-26T04:03:38;9.60;94.80
15040;DHT22;7617;47.366;8.558;2024-02-26T04:06:10;9.60;94.90
15040;DHT22;7617;47.366;8.558;2024-02-26T04:08:38;9.60;95.00
15040;DHT22;7617;47.366;8.558;2024-02-26T04:13:35;9.70;95.20
15040;DHT22;7617;47.366;8.558;2024-02-26T04:16:05;9.80;95.30
15040;DHT22;7617;47.366;8.558;2024-02-26T04:18:37;9.80;95.20
15040;DHT22;7617;47.366;8.558;2024-02-26T04:21:05;9.80;95.40
15040;DHT22;7617;47.366;8.558;2024-02-26T04:23:36;9.80;95.20
15040;DHT22;7617;47.366;8.558;2024-02-26T04:26:04;10.10;95.40
15040;DHT22;7617;47.366;8.558;2024-02-26T04:28:32;9.70;95.40
15040;DHT22;7617;47.366;8.558;2024-02-26T04:31:01;9.60;95.60
15040;DHT22;7617;47.366;8.558;2024-02-26T04:33:34;9.60;95.70
15040;DHT22;7617;47.366;8.558;2024-02-26T04:36:03;9.50;95.80
15040;DHT22;7617;47.366;8.558;2024-02-26T04:38:32;9.50;96.00
15040;DHT22;7617;47.366;8.558;2024-02-26T04:41:01;9.50;96.20
15040;DHT22;7617;47.366;8.558;2024-02-26T04:43:30;9.50;96.30
15040;DHT22;7617;47.366;8.558;2024-02-26T04:45:58;9.40;96.20
15040;DHT22;7617;47.366;8.558;2024-02-26T04:48:27;9.40;96.20
15040;DHT22;7617;47.366;8.558;2024-02-26T04:50:56;9.30;96.40
15040;DHT22;7617;47.366;8.558;2024-02-26T04:53:25;9.30;96.40
15040;DHT22;7617;47.366;8.558;2024-02-26T04:55:53;9.30;96.70
15040;DHT22;7617;47.366;8.558;2024-02-26T04:58:22;9.30;96.80
15040;DHT22;7617;47.366;8.558;2024-02-26T05:00:51;9.30;97.00
15040;DHT22;7617;47.366;8.558;2024-02-26T05:03:19;9.30;97.20
15040;DHT22;7617;47.366;8.558;2024-02-26T05:05:48;9.30;97.30
15040;DHT22;7617;47.366;8.558;2024-02-26T05:08:16;9.30;97.40
15040;DHT22;7617;47.366;8.558;2024-02-26T05:10:45;9.40;97.60
15040;DHT22;7617;47.366;8.558;2024-02-26T05:13:13;9.40;97.60
15040;DHT22;7617;47.366;8.558;2024-02-26T05:15:44;9.50;97.60
15040;DHT22;7617;47.366;8.558;2024-02-26T05:18:16;9.40;97.60
15040;DHT22;7617;47.366;8.558;2024-02-26T05:20:44;9.50;97.60
15040;DHT22;7617;47.366;8.558;2024-02-26T05:23:13;9.50;97.70
15040;DHT22;7617;47.366;8.558;2024-02-26T05:25:41;9.50;97.90
15040;DHT22;7617;47.366;8.558;2024-02-26T05:28:09;9.40;97.90
15040;DHT22;7617;47.366;8.558;2024-02-26T05:30:37;9.30;98.10
15040;DHT22;7617;47.366;8.558;2024-02-26T05:33:09;9.30;98.30
15040;DHT22;7617;47.366;8.558;2024-02-26T05:35:42;9.20;98.40
15040;DHT22;7617;47.366;8.558;2024-02-26T05:38:10;9.20;98.50
15040;DHT22;7617;47.366;8.558;2024-02-26T05:40:38;9.20;98.60
15040;DHT22;7617;47.366;8.558;2024-02-26T05:43:06;9.10;98.70
15040;DHT22;7617;47.366;8.558;2024-02-26T05:48:04;9.10;98.90
15040;DHT22;7617;47.366;8.558;2024-02-26T05:50:34;9.20;99.00
15040;DHT22;7617;47.366;8.558;2024-02-26T05:53:03;9.00;99.00
15040;DHT22;7617;47.366;8.558;2024-02-26T05:55:31;9.10;99.10
15040;DHT22;7617;47.366;8.558;2024-02-26T05:58:00;9.20;99.20
15040;DHT22;7617;47.366;8.558;2024-02-26T06:00:28;9.20;99.10
15040;DHT22;7617;47.366;8.558;2024-02-26T06:05:24;9.30;99.20
15040;DHT22;7617;47.366;8.558;2024-02-26T06:07:55;9.20;99.20
15040;DHT22;7617;47.366;8.558;2024-02-26T06:10:23;9.40;99.30
15040;DHT22;7617;47.366;8.558;2024-02-26T06:12:51;9.40;99.30
15040;DHT22;7617;47.366;8.558;2024-02-26T06:15:19;9.30;99.20
15040;DHT22;7617;47.366;8.558;2024-02-26T06:17:48;9.40;99.30
15040;DHT22;7617;47.366;8.558;2024-02-26T06:20:18;9.40;99.30
15040;DHT22;7617;47.366;8.558;2024-02-26T06:25:17;9.40;99.30
15040;DHT22;7617;47.366;8.558;2024-02-26T06:27:45;9.40;99.30
15040;DHT22;7617;47.366;8.558;2024-02-26T06:30:14;9.50;99.30
15040;DHT22;7617;47.366;8.558;2024-02-26T06:32:45;9.50;99.30
15040;DHT22;7617;47.366;8.558;2024-02-26T06:35:13;9.50;99.20
15040;DHT22;7617;47.366;8.558;2024-02-26T06:37:42;9.50;99.20
15040;DHT22;7617;47.366;8.558;2024-02-26T06:40:10;9.50;99.40
15040;DHT22;7617;47.366;8.558;2024-02-26T06:42:41;9.50;99.10
15040;DHT22;7617;47.366;8.558;2024-02-26T06:45:14;9.50;99.10
15040;DHT22;7617;47.366;8.558;2024-02-26T06:47:42;9.50;99.10
15040;DHT22;7617;47.366;8.558;2024-02-26T06:50:12;9.50;99.10
15040;DHT22;7617;47.366;8.558;2024-02-26T06:52:40;9.70;99.20
15040;DHT22;7617;47.366;8.558;2024-02-26T06:55:08;9.70;98.90
15040;DHT22;7617;47.366;8.558;2024-02-26T06:57:36;9.80;98.90
15040;DHT22;7617;47.366;8.558;2024-02-26T07:00:07;9.80;98.80
15040;DHT22;7617;47.366;8.558;2024-02-26T07:02:35;9.80;98.80
15040;DHT22;7617;47.366;8.558;2024-02-26T07:05:06;9.80;98.90
15040;DHT22;7617;47.366;8.558;2024-02-26T07:07:35;9.70;99.10
15040;DHT22;7617;47.366;8.558;2024-02-26T07:10:03;9.70;99.10
15040;DHT22;7617;47.366;8.558;2024-02-26T07:12:32;9.70;99.20
15040;DHT22;7617;47.366;8.558;2024-02-26T07:15:01;9.70;99.20
15040;DHT22;7617;47.366;8.558;2024-02-26T07:17:30;9.70;99.30
15040;DHT22;7617;47.366;8.558;2024-02-26T07:22:34;9.70;99.40
15040;DHT22;7617;47.366;8.558;2024-02-26T07:25:02;9.70;99.50
15040;DHT22;7617;47.366;8.558;2024-02-26T07:27:30;9.70;99.40
15040;DHT22;7617;47.366;8.558;2024-02-26T07:29:58;9.80;99.30
15040;DHT22;7617;47.366;8.558;2024-02-26T07:32:27;9.80;99.10
15040;DHT22;7617;47.366;8.558;2024-02-26T07:34:56;9.70;99.30
15040;DHT22;7617;47.366;8.558;2024-02-26T07:37:24;9.90;99.10
15040;DHT22;7617;47.366;8.558;2024-02-26T07:39:52;9.90;99.00
15040;DHT22;7617;47.366;8.558;2024-02-26T07:42:21;9.90;98.80
15040;DHT22;7617;47.366;8.558;2024-02-26T07:44:50;10.00;99.10
15040;DHT22;7617;47.366;8.558;2024-02-26T07:47:19;10.00;98.90
15040;DHT22;7617;47.366;8.558;2024-02-26T07:49:47;9.90;98.90
15040;DHT22;7617;47.366;8.558;2024-02-26T07:52:16;10.00;98.90
15040;DHT22;7617;47.366;8.558;2024-02-26T07:54:45;10.00;99.10
15040;DHT22;7617;47.366;8.558;2024-02-26T07:57:13;10.20;98.80
15040;DHT22;7617;47.366;8.558;2024-02-26T07:59:44;10.30;98.90
15040;DHT22;7617;47.366;8.558;2024-02-26T08:02:16;10.50;98.40
15040;DHT22;7617;47.366;8.558;2024-02-26T08:04:44;10.50;98.10
15040;DHT22;7617;47.366;8.558;2024-02-26T08:07:12;10.60;98.00
15040;DHT22;7617;47.366;8.558;2024-02-26T08:09:44;7.70;97.00
15040;DHT22;7617;47.366;8.558;2024-02-26T08:12:13;10.80;98.10
15040;DHT22;7617;47.366;8.558;2024-02-26T08:14:41;11.10;97.30
15040;DHT22;7617;47.366;8.558;2024-02-26T08:17:09;11.10;97.00
15040;DHT22;7617;47.366;8.558;2024-02-26T08:19:37;11.10;97.20
15040;DHT22;7617;47.366;8.558;2024-02-26T08:22:06;11.30;97.20
15040;DHT22;7617;47.366;8.558;2024-02-26T08:24:34;12.10;95.00
15040;DHT22;7617;47.366;8.558;2024-02-26T08:27:04;12.10;94.20
15040;DHT22;7617;47.366;8.558;2024-02-26T08:29:32;12.10;94.50
15040;DHT22;7617;47.366;8.558;2024-02-26T08:32:00;11.90;94.70
15040;DHT22;7617;47.366;8.558;2024-02-26T08:34:28;11.60;95.10
15040;DHT22;7617;47.366;8.558;2024-02-26T08:36:56;11.60;95.10
15040;DHT22;7617;47.366;8.558;2024-02-26T08:39:24;11.60;95.40
15040;DHT22;7617;47.366;8.558;2024-02-26T08:41:53;11.50;95.30
15040;DHT22;7617;47.366;8.558;2024-02-26T08:44:23;11.50;95.40
15040;DHT22;7617;47.366;8.558;2024-02-26T08:46:51;11.40;95.30
15040;DHT22;7617;47.366;8.558;2024-02-26T08:49:19;11.50;95.40
15040;DHT22;7617;47.366;8.558;2024-02-26T08:51:50;11.50;95.60
15040;DHT22;7617;47.366;8.558;2024-02-26T08:54:18;11.50;95.60
15040;DHT22;7617;47.366;8.558;2024-02-26T08:56:47;11.60;95.40
15040;DHT22;7617;47.366;8.558;2024-02-26T08:59:15;11.70;95.60
15040;DHT22;7617;47.366;8.558;2024-02-26T09:01:50;11.80;95.20
15040;DHT22;7617;47.366;8.558;2024-02-26T09:04:18;11.90;95.40
15040;DHT22;7617;47.366;8.558;2024-02-26T09:06:47;11.80;95.40
15040;DHT22;7617;47.366;8.558;2024-02-26T09:09:15;11.80;95.40
15040;DHT22;7617;47.366;8.558;2024-02-26T09:11:43;11.90;96.00
15040;DHT22;7617;47.366;8.558;2024-02-26T09:14:12;11.90;95.60
15040;DHT22;7617;47.366;8.558;2024-02-26T09:16:40;12.00;95.20
15040;DHT22;7617;47.366;8.558;2024-02-26T09:19:10;12.10;95.40
15040;DHT22;7617;47.366;8.558;2024-02-26T09:21:42;12.10;94.70
15040;DHT22;7617;47.366;8.558;2024-02-26T09:24:11;12.10;94.60
15040;DHT22;7617;47.366;8.558;2024-02-26T09:26:39;11.90;93.70
15040;DHT22;7617;47.366;8.558;2024-02-26T09:29:07;11.90;93.90
15040;DHT22;7617;47.366;8.558;2024-02-26T09:31:35;12.10;94.20
15040;DHT22;7617;47.366;8.558;2024-02-26T09:34:03;11.70;94.10
15040;DHT22;7617;47.366;8.558;2024-02-26T09:36:33;9.70;93.50
15040;DHT22;7617;47.366;8.558;2024-02-26T09:39:01;11.70;94.30
15040;DHT22;7617;47.366;8.558;2024-02-26T09:41:30;11.60;94.30
15040;DHT22;7617;47.366;8.558;2024-02-26T09:44:01;11.70;94.50
15040;DHT22;7617;47.366;8.558;2024-02-26T09:46:30;11.90;94.10
15040;DHT22;7617;47.366;8.558;2024-02-26T09:48:59;12.00;94.40
15040;DHT22;7617;47.366;8.558;2024-02-26T09:51:27;12.10;94.40
15040;DHT22;7617;47.366;8.558;2024-02-26T09:53:59;12.30;94.20
15040;DHT22;7617;47.366;8.558;2024-02-26T09:56:29;12.40;93.50
15040;DHT22;7617;47.366;8.558;2024-02-26T09:58:59;12.40;93.80
15040;DHT22;7617;47.366;8.558;2024-02-26T10:01:27;12.50;93.50
15040;DHT22;7617;47.366;8.558;2024-02-26T10:03:59;12.50;93.40
15040;DHT22;7617;47.366;8.558;2024-02-26T10:06:28;12.60;93.00
15040;DHT22;7617;47.366;8.558;2024-02-26T10:08:57;12.60;93.20
15040;DHT22;7617;47.366;8.558;2024-02-26T10:13:55;12.60;93.30
15040;DHT22;7617;47.366;8.558;2024-02-26T10:16:24;12.70;93.10
15040;DHT22;7617;47.366;8.558;2024-02-26T10:18:53;12.70;93.30
15040;DHT22;7617;47.366;8.558;2024-02-26T10:23:54;12.50;92.60
15040;DHT22;7617;47.366;8.558;2024-02-26T10:26:24;12.60;92.80
15040;DHT22;7617;47.366;8.558;2024-02-26T10:28:52;12.60;93.00
15040;DHT22;7617;47.366;8.558;2024-02-26T10:31:22;12.60;92.80
15040;DHT22;7617;47.366;8.558;2024-02-26T10:33:55;12.60;92.80
15040;DHT22;7617;47.366;8.558;2024-02-26T10:36:26;12.60;92.50
15040;DHT22;7617;47.366;8.558;2024-02-26T10:39:12;12.60;92.50
15040;DHT22;7617;47.366;8.558;2024-02-26T10:41:42;12.60;92.60
15040;DHT22;7617;47.366;8.558;2024-02-26T10:44:11;12.60;92.70
15040;DHT22;7617;47.366;8.558;2024-02-26T10:46:46;12.70;92.50
15040;DHT22;7617;47.366;8.558;2024-02-26T10:49:15;12.80;92.40
15040;DHT22;7617;47.366;8.558;2024-02-26T10:51:51;12.90;92.20
15040;DHT22;7617;47.366;8.558;2024-02-26T10:54:21;13.00;92.30
15040;DHT22;7617;47.366;8.558;2024-02-26T10:56:53;13.20;92.20
15040;DHT22;7617;47.366;8.558;2024-02-26T11:01:52;13.50;91.80
15040;DHT22;7617;47.366;8.558;2024-02-26T11:04:20;13.50;91.80
15040;DHT22;7617;47.366;8.558;2024-02-26T11:06:50;13.60;91.50
15040;DHT22;7617;47.366;8.558;2024-02-26T11:09:19;13.60;91.70
15040;DHT22;7617;47.366;8.558;2024-02-26T11:11:48;13.70;91.90
15040;DHT22;7617;47.366;8.558;2024-02-26T11:14:22;13.70;92.10
15040;DHT22;7617;47.366;8.558;2024-02-26T11:16:54;13.60;92.20
15040;DHT22;7617;47.366;8.558;2024-02-26T11:19:24;13.50;92.40
15040;DHT22;7617;47.366;8.558;2024-02-26T11:21:54;13.60;92.70
15040;DHT22;7617;47.366;8.558;2024-02-26T11:26:57;13.40;92.60
15040;DHT22;7617;47.366;8.558;2024-02-26T11:29:32;13.30;92.70
15040;DHT22;7617;47.366;8.558;2024-02-26T11:32:02;15.80;93.50
15040;DHT22;7617;47.366;8.558;2024-02-26T11:34:31;13.20;92.90
15040;DHT22;7617;47.366;8.558;2024-02-26T11:37:10;13.10;93.00
15040;DHT22;7617;47.366;8.558;2024-02-26T11:39:39;13.10;92.90
15040;DHT22;7617;47.366;8.558;2024-02-26T11:42:08;13.10;92.80
15040;DHT22;7617;47.366;8.558;2024-02-26T11:44:39;13.00;92.80
15040;DHT22;7617;47.366;8.558;2024-02-26T11:49:40;13.10;92.80
15040;DHT22;7617;47.366;8.558;2024-02-26T11:52:09;13.10;92.80
15040;DHT22;7617;47.366;8.558;2024-02-26T11:54:44;13.20;92.60
15040;DHT22;7617;47.366;8.558;2024-02-26T11:57:24;13.10;92.50
15040;DHT22;7617;47.366;8.558;2024-02-26T11:59:54;13.20;92.70
15040;DHT22;7617;47.366;8.558;2024-02-26T12:02:40;13.40;92.50
15040;DHT22;7617;47.366;8.558;2024-02-26T12:05:10;13.40;92.20
15040;DHT22;7617;47.366;8.558;2024-02-26T12:07:41;13.40;92.00
15040;DHT22;7617;47.366;8.558;2024-02-26T12:10:15;13.60;91.80
15040;DHT22;7617;47.366;8.558;2024-02-26T12:15:15;13.70;91.30
15040;DHT22;7617;47.366;8.558;2024-02-26T12:17:48;13.80;91.20
15040;DHT22;7617;47.366;8.558;2024-02-26T12:20:17;14.00;91.10
15040;DHT22;7617;47.366;8.558;2024-02-26T12:22:46;14.10;90.40
15040;DHT22;7617;47.366;8.558;2024-02-26T12:25:16;13.90;90.10
15040;DHT22;7617;47.366;8.558;2024-02-26T12:27:44;13.80;90.70
15040;DHT22;7617;47.366;8.558;2024-02-26T12:37:39;13.90;90.80
15040;DHT22;7617;47.366;8.558;2024-02-26T12:40:11;13.90;90.70
15040;DHT22;7617;47.366;8.558;2024-02-26T12:42:39;14.10;90.40
15040;DHT22;7617;47.366;8.558;2024-02-26T12:45:09;14.30;90.20
15040;DHT22;7617;47.366;8.558;2024-02-26T12:47:40;14.70;90.10
15040;DHT22;7617;47.366;8.558;2024-02-26T12:50:10;14.60;88.70
15040;DHT22;7617;47.366;8.558;2024-02-26T12:52:39;14.60;87.90
15040;DHT22;7617;47.366;8.558;2024-02-26T12:55:08;14.80;88.60
15040;DHT22;7617;47.366;8.558;2024-02-26T12:57:38;13.60;88.00
15040;DHT22;7617;47.366;8.558;2024-02-26T13:00:08;14.70;88.50
15040;DHT22;7617;47.366;8.558;2024-02-26T13:02:40;14.70;88.70
15040;DHT22;7617;47.366;8.558;2024-02-26T13:07:41;14.70;88.60
15040;DHT22;7617;47.366;8.558;2024-02-26T13:10:10;14.70;88.90
15040;DHT22;7617;47.366;8.558;2024-02-26T13:12:43;14.70;89.10
15040;DHT22;7617;47.366;8.558;2024-02-26T13:15:15;14.70;88.90
15040;DHT22;7617;47.366;8.558;2024-02-26T13:17:44;14.70;89.10
15040;DHT22;7617;47.366;8.558;2024-02-26T13:30:10;14.50;87.50
15040;DHT22;7617;47.366;8.558;2024-02-26T13:32:40;14.40;87.80
15040;DHT22;7617;47.366;8.558;2024-02-26T13:35:11;14.40;87.90
15040;DHT22;7617;47.366;8.558;2024-02-26T13:40:10;14.20;87.20
15040;DHT22;7617;47.366;8.558;2024-02-26T13:52:37;14.30;87.50
15040;DHT22;7617;47.366;8.558;2024-02-26T13:55:06;14.30;87.50
15040;DHT22;7617;47.366;8.558;2024-02-26T14:10:06;13.80;87.50
15040;DHT22;7617;47.366;8.558;2024-02-26T14:27:32;13.50;88.50
15040;DHT22;7617;47.366;8.558;2024-02-26T15:02:18;13.20;88.10
15040;DHT22;7617;47.366;8.558;2024-02-26T15:19:43;13.40;87.50
15040;DHT22;7617;47.366;8.558;2024-02-26T15:29:38;13.30;87.40
15040;DHT22;7617;47.366;8.558;2024-02-26T15:37:05;13.20;87.40
15040;DHT22;7617;47.366;8.558;2024-02-26T15:51:57;13.40;88.30
15040;DHT22;7617;47.366;8.558;2024-02-26T15:54:27;13.40;88.40
15040;DHT22;7617;47.366;8.558;2024-02-26T16:06:52;13.30;87.50
15040;DHT22;7617;47.366;8.558;2024-02-26T16:14:26;13.60;87.70
15040;DHT22;7617;47.366;8.558;2024-02-26T16:16:59;13.50;87.30
15040;DHT22;7617;47.366;8.558;2024-02-26T16:24:25;13.00;95.10
15040;DHT22;7617;47.366;8.558;2024-02-26T16:26:55;13.00;86.20
15040;DHT22;7617;47.366;8.558;2024-02-26T16:31:51;12.70;89.50
15040;DHT22;7617;47.366;8.558;2024-02-26T16:44:15;12.90;88.20
15040;DHT22;7617;47.366;8.558;2024-02-26T16:49:12;13.10;97.50
15040;DHT22;7617;47.366;8.558;2024-02-26T16:51:40;12.90;96.70
15040;DHT22;7617;47.366;8.558;2024-02-26T16:54:08;12.70;96.30
15040;DHT22;7617;47.366;8.558;2024-02-26T16:56:37;12.90;96.50
15040;DHT22;7617;47.366;8.558;2024-02-26T16:59:05;13.20;95.60
15040;DHT22;7617;47.366;8.558;2024-02-26T17:01:34;13.10;88.10
15040;DHT22;7617;47.366;8.558;2024-02-26T17:11:31;12.90;92.60
15040;DHT22;7617;47.366;8.558;2024-02-26T17:16:29;13.10;93.30
15040;DHT22;7617;47.366;8.558;2024-02-26T17:18:59;12.90;90.00
15040;DHT22;7617;47.366;8.558;2024-02-26T17:21:27;12.80;90.60
15040;DHT22;7617;47.366;8.558;2024-02-26T17:23:55;12.70;93.00
15040;DHT22;7617;47.366;8.558;2024-02-26T17:26:24;12.60;90.30
15040;DHT22;7617;47.366;8.558;2024-02-26T17:36:22;12.50;91.00
15040;DHT22;7617;47.366;8.558;2024-02-26T17:38:50;12.80;91.80
15040;DHT22;7617;47.366;8.558;2024-02-26T17:41:18;12.30;92.60
15040;DHT22;7617;47.366;8.558;2024-02-26T17:46:16;12.10;91.60
15040;DHT22;7617;47.366;8.558;2024-02-26T17:48:44;12.40;92.30
15040;DHT22;7617;47.366;8.558;2024-02-26T17:51:13;12.10;91.80
15040;DHT22;7617;47.366;8.558;2024-02-26T17:53:42;12.30;91.50
15040;DHT22;7617;47.366;8.558;2024-02-26T18:01:09;12.20;92.00
15040;DHT22;7617;47.366;8.558;2024-02-26T18:03:37;12.10;92.20
15040;DHT22;7617;47.366;8.558;2024-02-26T18:11:04;11.90;92.40
15040;DHT22;7617;47.366;8.558;2024-02-26T18:13:33;12.00;92.60
15040;DHT22;7617;47.366;8.558;2024-02-26T18:16:03;11.80;92.70
15040;DHT22;7617;47.366;8.558;2024-02-26T18:23:29;11.60;93.20
15040;DHT22;7617;47.366;8.558;2024-02-26T18:25:57;11.60;93.40
15040;DHT22;7617;47.366;8.558;2024-02-26T18:28:26;11.40;93.80
15040;DHT22;7617;47.366;8.558;2024-02-26T18:33:24;11.50;94.00
15040;DHT22;7617;47.366;8.558;2024-02-26T18:35:52;11.10;94.20
15040;DHT22;7617;47.366;8.558;2024-02-26T18:38:20;11.40;94.00
15040;DHT22;7617;47.366;8.558;2024-02-26T18:45:47;11.30;94.10
15040;DHT22;7617;47.366;8.558;2024-02-26T18:48:15;11.10;94.30
15040;DHT22;7617;47.366;8.558;2024-02-26T18:50:43;11.20;94.30
15040;DHT22;7617;47.366;8.558;2024-02-26T18:53:13;11.10;94.30
15040;DHT22;7617;47.366;8.558;2024-02-26T18:55:41;10.90;94.30
15040;DHT22;7617;47.366;8.558;2024-02-26T18:58:10;11.00;94.60
15040;DHT22;7617;47.366;8.558;2024-02-26T19:00:39;11.00;94.90
15040;DHT22;7617;47.366;8.558;2024-02-26T19:03:09;10.80;94.30
15040;DHT22;7617;47.366;8.558;2024-02-26T19:05:37;10.80;94.60
15040;DHT22;7617;47.366;8.558;2024-02-26T19:10:35;10.50;94.90
15040;DHT22;7617;47.366;8.558;2024-02-26T19:15:35;10.20;94.60
15040;DHT22;7617;47.366;8.558;2024-02-26T19:18:05;10.30;95.00
15040;DHT22;7617;47.366;8.558;2024-02-26T19:20:35;10.40;94.90
15040;DHT22;7617;47.366;8.558;2024-02-26T19:23:03;10.20;94.80
15040;DHT22;7617;47.366;8.558;2024-02-26T19:25:31;10.20;94.80
15040;DHT22;7617;47.366;8.558;2024-02-26T19:27:59;10.20;94.80
15040;DHT22;7617;47.366;8.558;2024-02-26T19:30:27;10.40;94.80
15040;DHT22;7617;47.366;8.558;2024-02-26T19:32:55;10.30;94.90
15040;DHT22;7617;47.366;8.558;2024-02-26T19:35:24;10.30;94.90
15040;DHT22;7617;47.366;8.558;2024-02-26T19:37:53;10.00;94.90
15040;DHT22;7617;47.366;8.558;2024-02-26T19:42:50;10.10;95.00
15040;DHT22;7617;47.366;8.558;2024-02-26T19:45:18;10.00;95.20
15040;DHT22;7617;47.366;8.558;2024-02-26T19:47:46;10.10;95.20
15040;DHT22;7617;47.366;8.558;2024-02-26T19:50:15;10.30;95.20
15040;DHT22;7617;47.366;8.558;2024-02-26T19:55:14;10.40;95.30
15040;DHT22;7617;47.366;8.558;2024-02-26T20:00:12;10.20;95.40
15040;DHT22;7617;47.366;8.558;2024-02-26T20:02:40;10.20;95.30
15040;DHT22;7617;47.366;8.558;2024-02-26T20:05:09;10.20;95.20
15040;DHT22;7617;47.366;8.558;2024-02-26T20:07:38;10.10;95.10
15040;DHT22;7617;47.366;8.558;2024-02-26T20:10:07;10.00;94.90
15040;DHT22;7617;47.366;8.558;2024-02-26T20:12:37;10.00;94.90
15040;DHT22;7617;47.366;8.558;2024-02-26T20:15:05;9.90;94.90
15040;DHT22;7617;47.366;8.558;2024-02-26T20:17:34;9.90;95.10
15040;DHT22;7617;47.366;8.558;2024-02-26T20:20:05;10.00;95.30
15040;DHT22;7617;47.366;8.558;2024-02-26T20:22:34;9.70;95.10
15040;DHT22;7617;47.366;8.558;2024-02-26T20:25:07;9.90;95.40
15040;DHT22;7617;47.366;8.558;2024-02-26T20:27:38;10.00;95.40
15040;DHT22;7617;47.366;8.558;2024-02-26T20:30:07;9.90;95.10
15040;DHT22;7617;47.366;8.558;2024-02-26T20:32:35;10.00;95.30
15040;DHT22;7617;47.366;8.558;2024-02-26T20:35:05;10.10;95.30
15040;DHT22;7617;47.366;8.558;2024-02-26T20:37:35;10.00;95.20
15040;DHT22;7617;47.366;8.558;2024-02-26T20:40:05;10.10;95.20
15040;DHT22;7617;47.366;8.558;2024-02-26T20:45:04;10.00;95.10
15040;DHT22;7617;47.366;8.558;2024-02-26T20:47:33;10.00;95.00
15040;DHT22;7617;47.366;8.558;2024-02-26T20:50:01;9.80;95.20
15040;DHT22;7617;47.366;8.558;2024-02-26T20:52:32;9.90;95.20
15040;DHT22;7617;47.366;8.558;2024-02-26T20:55:00;9.70;95.20